Time,TemperatureF,DewpointF,PressureIn,WindDirection,WindDirectionDegrees,WindSpeedMPH,WindSpeedGustMPH,Humidity,HourlyPrecipIn,Conditions,Clouds,dailyrainin,SoftwareType,DateUTC
2013-07-24 00:01:00,73.0,71.0,29.71,North,0,0.0,0.0,95,0.00,,,0.00,,2013-07-24 04:01:00,
2013-07-24 00:11:00,73.0,71.0,29.71,North,0,0.0,0.0,95,0.00,,,0.00,,2013-07-24 04:11:00,
2013-07-24 00:22:00,73.0,71.0,29.71,North,0,0.0,0.0,95,0.00,,,0.00,,2013-07-24 04:22:00,
2013-07-24 00:32:00,73.0,72.0,29.72,North,0,0.0,0.0,96,0.00,,,0.00,,2013-07-24 04:32:00,
2013-07-24 00:43:00,72.0,71.0,29.71,North,0,0.0,0.0,96,0.00,,,0.00,,2013-07-24 04:43:00,
2013-07-24 00:52:00,72.0,71.0,29.72,North,0,0.0,0.0,96,0.00,,,0.00,,2013-07-24 04:52:00,
2013-07-24 01:02:00,72.0,71.0,29.72,North,0,0.0,0.0,96,0.00,,,0.00,,2013-07-24 05:02:00,
2013-07-24 01:22:00,72.0,71.0,29.71,North,0,0.0,0.0,96,0.00,,,0.00,,2013-07-24 05:22:00,
2013-07-24 01:33:00,72.0,71.0,29.71,North,0,0.0,0.0,96,0.00,,,0.00,,2013-07-24 05:33:00,
2013-07-24 01:43:00,72.0,71.0,29.71,North,0,0.0,0.0,96,0.00,,,0.00,,2013-07-24 05:43:00,
2013-07-24 01:52:00,72.0,71.0,29.71,North,0,0.0,3.0,96,0.00,,,0.00,,2013-07-24 05:52:00,
2013-07-24 02:01:00,72.0,71.0,29.71,North,0,0.0,1.0,96,0.00,,,0.00,,2013-07-24 06:01:00,
2013-07-24 02:24:00,72.0,71.0,29.71,North,0,0.0,0.0,96,0.00,,,0.00,,2013-07-24 06:24:00,
2013-07-24 02:43:00,72.0,71.0,29.70,North,0,0.0,0.0,96,0.00,,,0.00,,2013-07-24 06:43:00,
2013-07-24 02:53:00,72.0,70.0,29.70,North,0,0.0,0.0,95,0.00,,,0.00,,2013-07-24 06:53:00,
2013-07-24 03:02:00,72.0,70.0,29.70,North,0,0.0,0.0,95,0.00,,,0.00,,2013-07-24 07:02:00,
2013-07-24 03:12:00,72.0,70.0,29.69,North,0,0.0,0.0,95,0.00,,,0.00,,2013-07-24 07:12:00,
2013-07-24 03:22:00,72.0,70.0,29.69,North,0,0.0,0.0,95,0.00,,,0.00,,2013-07-24 07:22:00,
2013-07-24 03:32:00,72.0,70.0,29.69,North,0,0.0,0.0,95,0.00,,,0.00,,2013-07-24 07:32:00,
2013-07-24 03:43:00,72.0,70.0,29.69,North,0,0.0,0.0,95,0.00,,,0.00,,2013-07-24 07:43:00,
2013-07-24 03:53:00,71.0,69.0,29.68,North,0,0.0,0.0,95,0.00,,,0.00,,2013-07-24 07:53:00,
2013-07-24 04:02:00,71.0,69.0,29.68,North,0,0.0,0.0,95,0.00,,,0.00,,2013-07-24 08:02:00,
2013-07-24 04:12:00,71.0,69.0,29.68,North,0,0.0,0.0,95,0.00,,,0.00,,2013-07-24 08:12:00,
2013-07-24 04:22:00,71.0,69.0,29.67,North,0,0.0,0.0,95,0.00,,,0.00,,2013-07-24 08:22:00,
2013-07-24 04:32:00,71.0,69.0,29.67,North,0,0.0,0.0,95,0.00,,,0.00,,2013-07-24 08:32:00,
2013-07-24 04:43:00,71.0,69.0,29.67,North,0,0.0,0.0,95,0.00,,,0.00,,2013-07-24 08:43:00,
2013-07-24 04:52:00,70.0,68.0,29.67,North,0,0.0,0.0,95,0.00,,,0.00,,2013-07-24 08:52:00,
2013-07-24 05:02:00,70.0,68.0,29.67,North,0,0.0,0.0,95,0.00,,,0.00,,2013-07-24 09:02:00,
2013-07-24 05:12:00,70.0,68.0,29.67,North,0,0.0,0.0,95,0.00,,,0.00,,2013-07-24 09:12:00,
2013-07-24 05:22:00,70.0,68.0,29.67,North,0,0.0,0.0,95,0.00,,,0.00,,2013-07-24 09:22:00,
2013-07-24 05:32:00,70.0,68.0,29.67,North,0,0.0,0.0,95,0.00,,,0.00,,2013-07-24 09:32:00,
2013-07-24 05:43:00,70.0,69.0,29.68,North,0,0.0,0.0,96,0.00,,,0.00,,2013-07-24 09:43:00,
2013-07-24 05:53:00,70.0,69.0,29.68,North,0,0.0,0.0,96,0.00,,,0.00,,2013-07-24 09:53:00,
2013-07-24 06:02:00,70.0,69.0,29.68,North,0,0.0,0.0,96,0.00,,,0.00,,2013-07-24 10:02:00,
2013-07-24 06:12:00,70.0,69.0,29.68,North,0,0.0,0.0,96,0.00,,,0.00,,2013-07-24 10:12:00,
2013-07-24 06:22:00,70.0,69.0,29.68,North,0,0.0,0.0,96,0.00,,,0.00,,2013-07-24 10:22:00,
2013-07-24 06:43:00,70.0,69.0,29.69,North,0,0.0,0.0,96,0.00,,,0.00,,2013-07-24 10:43:00,
2013-07-24 06:53:00,70.0,69.0,29.69,North,0,0.0,0.0,96,0.00,,,0.00,,2013-07-24 10:53:00,
2013-07-24 07:02:00,69.0,68.0,29.70,North,0,0.0,0.0,96,0.00,,,0.00,,2013-07-24 11:02:00,
2013-07-24 07:12:00,69.0,68.0,29.70,North,0,0.0,0.0,96,0.00,,,0.00,,2013-07-24 11:12:00,
2013-07-24 07:43:00,69.0,68.0,29.71,North,0,0.0,0.0,97,0.00,,,0.00,,2013-07-24 11:43:00,
2013-07-24 07:52:00,69.0,68.0,29.71,North,0,0.0,0.0,97,0.00,,,0.00,,2013-07-24 11:52:00,
2013-07-24 08:02:00,70.0,69.0,29.71,North,0,0.0,0.0,98,0.00,,,0.00,,2013-07-24 12:02:00,
2013-07-24 08:12:00,70.0,69.0,29.71,North,0,0.0,0.0,98,0.00,,,0.00,,2013-07-24 12:12:00,
2013-07-24 08:22:00,70.0,69.0,29.71,North,0,0.0,0.0,98,0.00,,,0.00,,2013-07-24 12:22:00,
2013-07-24 08:32:00,71.0,70.0,29.72,North,0,0.0,0.0,98,0.00,,,0.00,,2013-07-24 12:32:00,
2013-07-24 08:42:00,72.0,71.0,29.72,North,0,0.0,0.0,98,0.00,,,0.00,,2013-07-24 12:42:00,
2013-07-24 08:52:00,72.0,71.0,29.73,North,0,0.0,2.0,98,0.00,,,0.00,,2013-07-24 12:52:00,
2013-07-24 09:12:00,73.0,72.0,29.73,North,0,0.0,1.0,97,0.00,,,0.00,,2013-07-24 13:12:00,
2013-07-24 09:32:00,74.0,73.0,29.74,North,0,0.0,3.0,96,0.00,,,0.00,,2013-07-24 13:32:00,
2013-07-24 09:43:00,74.0,73.0,29.74,North,0,0.0,3.0,96,0.00,,,0.00,,2013-07-24 13:43:00,
2013-07-24 09:53:00,74.0,73.0,29.74,North,0,0.0,3.0,96,0.00,,,0.00,,2013-07-24 13:53:00,
2013-07-24 10:02:00,74.0,73.0,29.74,North,0,0.0,3.0,96,0.00,,,0.00,,2013-07-24 14:02:00,
2013-07-24 10:22:00,81.0,76.0,29.73,North,0,0.0,2.0,84,0.00,,,0.00,,2013-07-24 14:22:00,
2013-07-24 10:32:00,83.0,78.0,29.73,North,0,0.0,3.0,85,0.00,,,0.00,,2013-07-24 14:32:00,
2013-07-24 10:43:00,83.0,76.0,29.73,North,0,0.0,4.0,79,0.00,,,0.00,,2013-07-24 14:43:00,
2013-07-24 10:55:00,83.0,76.0,29.73,North,0,0.0,4.0,79,0.00,,,0.00,,2013-07-24 14:55:00,
2013-07-24 11:02:00,83.0,76.0,29.73,North,0,0.0,4.0,79,0.00,,,0.00,,2013-07-24 15:02:00,
2013-07-24 11:12:00,85.0,76.0,29.73,North,0,0.0,2.0,74,0.00,,,0.00,,2013-07-24 15:12:00,
2013-07-24 11:22:00,85.0,76.0,29.73,North,0,0.0,2.0,74,0.00,,,0.00,,2013-07-24 15:22:00,
2013-07-24 11:33:00,85.0,76.0,29.73,North,0,0.0,2.0,74,0.00,,,0.00,,2013-07-24 15:33:00,
2013-07-24 11:43:00,86.0,77.0,29.73,North,0,0.0,4.0,75,0.00,,,0.00,,2013-07-24 15:43:00,
2013-07-24 11:53:00,87.0,78.0,29.73,North,0,0.0,0.0,74,0.00,,,0.00,,2013-07-24 15:53:00,
2013-07-24 12:02:00,87.0,77.0,29.73,North,0,0.0,2.0,73,0.00,,,0.00,,2013-07-24 16:02:00,
2013-07-24 12:12:00,87.0,78.0,29.73,North,0,0.0,2.0,74,0.00,,,0.00,,2013-07-24 16:12:00,
2013-07-24 12:22:00,87.0,76.0,29.74,North,0,0.0,2.0,69,0.00,,,0.00,,2013-07-24 16:22:00,
2013-07-24 12:33:00,87.0,78.0,29.73,North,0,0.0,3.0,74,0.00,,,0.00,,2013-07-24 16:33:00,
2013-07-24 12:43:00,89.0,77.0,29.73,North,0,0.0,2.0,68,0.00,,,0.00,,2013-07-24 16:43:00,
2013-07-24 12:53:00,89.0,79.0,29.72,North,0,0.0,2.0,72,0.00,,,0.00,,2013-07-24 16:53:00,
2013-07-24 13:03:00,89.0,77.0,29.72,North,0,0.0,3.0,67,0.00,,,0.00,,2013-07-24 17:03:00,
2013-07-24 13:12:00,89.0,75.0,29.72,SSE,153,1.0,4.0,63,0.00,,,0.00,,2013-07-24 17:12:00,
2013-07-24 13:22:00,88.0,77.0,29.72,North,0,0.0,0.0,70,0.00,,,0.00,,2013-07-24 17:22:00,
2013-07-24 13:33:00,88.0,74.0,29.71,North,0,0.0,1.0,64,0.00,,,0.00,,2013-07-24 17:33:00,
2013-07-24 13:43:00,88.0,75.0,29.72,North,0,0.0,0.0,66,0.00,,,0.00,,2013-07-24 17:43:00,
2013-07-24 13:53:00,87.0,76.0,29.72,North,0,0.0,1.0,70,0.00,,,0.00,,2013-07-24 17:53:00,
2013-07-24 14:02:00,89.0,75.0,29.72,North,0,0.0,0.0,63,0.00,,,0.00,,2013-07-24 18:02:00,
2013-07-24 14:12:00,86.0,75.0,29.72,North,0,0.0,0.0,69,0.00,,,0.00,,2013-07-24 18:12:00,
2013-07-24 14:22:00,85.0,76.0,29.72,North,0,0.0,0.0,75,0.00,,,0.00,,2013-07-24 18:22:00,
2013-07-24 15:43:00,89.0,75.0,29.69,North,0,0.0,3.0,63,0.00,,,0.00,,2013-07-24 19:43:00,
2013-07-24 15:53:00,90.0,75.0,29.69,SSE,151,2.0,4.0,62,0.00,,,0.00,,2013-07-24 19:53:00,
2013-07-24 16:23:00,90.0,75.0,29.69,SSE,151,1.0,3.0,62,0.00,,,0.00,,2013-07-24 20:23:00,
2013-07-24 16:32:00,90.0,75.0,29.69,SSE,149,2.0,4.0,61,0.00,,,0.00,,2013-07-24 20:32:00,
2013-07-24 16:52:00,90.0,74.0,29.69,North,0,0.0,6.0,59,0.00,,,0.00,,2013-07-24 20:52:00,
2013-07-24 17:03:00,90.0,76.0,29.68,North,0,0.0,2.0,64,0.00,,,0.00,,2013-07-24 21:03:00,
2013-07-24 17:12:00,90.0,75.0,29.68,North,0,0.0,2.0,62,0.00,,,0.00,,2013-07-24 21:12:00,
2013-07-24 17:22:00,88.0,77.0,29.68,North,0,0.0,2.0,71,0.00,,,0.00,,2013-07-24 21:22:00,
2013-07-24 17:32:00,85.0,77.0,29.69,North,0,0.0,0.0,77,0.00,,,0.00,,2013-07-24 21:32:00,
2013-07-24 17:44:00,84.0,78.0,29.69,North,0,0.0,0.0,81,0.00,,,0.00,,2013-07-24 21:44:00,
2013-07-24 17:52:00,85.0,78.0,29.69,North,0,0.0,0.0,80,0.00,,,0.00,,2013-07-24 21:52:00,
2013-07-24 19:32:00,80.0,76.0,29.69,North,0,0.0,0.0,88,0.00,,,0.01,,2013-07-24 23:32:00,
2013-07-24 19:43:00,79.0,75.0,29.69,North,0,0.0,0.0,89,0.00,,,0.01,,2013-07-24 23:43:00,
2013-07-24 19:52:00,79.0,75.0,29.70,North,0,0.0,0.0,89,0.00,,,0.01,,2013-07-24 23:52:00,
2013-07-24 20:02:00,79.0,76.0,29.70,North,0,0.0,0.0,90,0.00,,,0.01,,2013-07-25 00:02:00,
2013-07-24 20:12:00,79.0,75.0,29.71,North,0,0.0,0.0,89,0.00,,,0.01,,2013-07-25 00:12:00,
2013-07-24 20:22:00,79.0,76.0,29.72,North,0,0.0,0.0,90,0.00,,,0.01,,2013-07-25 00:22:00,
2013-07-24 20:33:00,79.0,76.0,29.72,North,0,0.0,0.0,90,0.00,,,0.01,,2013-07-25 00:33:00,
2013-07-24 20:43:00,79.0,75.0,29.73,North,0,0.0,0.0,89,0.00,,,0.01,,2013-07-25 00:43:00,
2013-07-24 20:53:00,78.0,75.0,29.72,North,0,0.0,1.0,91,0.00,,,0.01,,2013-07-25 00:53:00,
2013-07-24 21:03:00,78.0,75.0,29.73,North,0,0.0,0.0,90,0.00,,,0.01,,2013-07-25 01:03:00,
2013-07-24 21:12:00,78.0,74.0,29.72,North,0,0.0,0.0,88,0.00,,,0.01,,2013-07-25 01:12:00,
2013-07-24 21:22:00,77.0,74.0,29.73,North,0,0.0,0.0,89,0.00,,,0.01,,2013-07-25 01:22:00,
2013-07-24 21:43:00,76.0,73.0,29.74,North,0,0.0,0.0,90,0.00,,,0.01,,2013-07-25 01:43:00,
2013-07-24 21:53:00,76.0,73.0,29.74,North,0,0.0,0.0,90,0.00,,,0.01,,2013-07-25 01:53:00,
2013-07-24 22:02:00,76.0,73.0,29.74,North,0,0.0,0.0,90,0.00,,,0.01,,2013-07-25 02:02:00,
2013-07-24 22:22:00,75.0,73.0,29.76,North,0,0.0,0.0,93,0.00,,,0.01,,2013-07-25 02:22:00,
2013-07-24 22:33:00,75.0,72.0,29.76,North,0,0.0,0.0,91,0.00,,,0.01,,2013-07-25 02:33:00,
2013-07-24 22:53:00,75.0,72.0,29.77,North,0,0.0,0.0,89,0.00,,,0.01,,2013-07-25 02:53:00,
2013-07-24 23:02:00,75.0,72.0,29.77,North,0,0.0,0.0,89,0.00,,,0.01,,2013-07-25 03:02:00,
2013-07-24 23:24:00,74.0,71.0,29.78,North,0,0.0,0.0,90,0.00,,,0.01,,2013-07-25 03:24:00,
2013-07-24 23:38:00,74.0,71.0,29.78,North,0,0.0,0.0,90,0.00,,,0.01,,2013-07-25 03:38:00,
2013-07-24 23:44:00,74.0,72.0,29.78,North,0,0.0,0.0,92,0.00,,,0.01,,2013-07-25 03:44:00,
2013-07-24 23:52:00,74.0,72.0,29.78,North,0,0.0,0.0,92,0.00,,,0.01,,2013-07-25 03:52:00,